sensor_id;sensor_type;location;lat;lon;timestamp;temperature;humidity
25963;DHT22;13760;52.588;13.406;2023-07-20T00:00:49;16.70;99.90
25963;DHT22;13760;52.588;13.406;2023-07-20T00:03:21;16.70;99.90
25963;DHT22;13760;52.588;13.406;2023-07-20T00:05:53;16.60;99.90
25963;DHT22;13760;52.588;13.406;2023-07-20T00:08:19;16.60;99.90
25963;DHT22;13760;52.588;13.406;2023-07-20T00:10:45;16.60;99.90
25963;DHT22;13760;52.588;13.406;2023-07-20T00:13:11;16.60;99.90
25963;DHT22;13760;52.588;13.406;2023-07-20T00:15:49;16.60;99.90
25963;DHT22;13760;52.588;13.406;2023-07-20T00:18:15;16.50;99.90
25963;DHT22;13760;52.588;13.406;2023-07-20T00:20:41;16.60;99.90
25963;DHT22;13760;52.588;13.406;2023-07-20T00:23:19;16.50;99.90
25963;DHT22;13760;52.588;13.406;2023-07-20T00:25:48;16.50;99.90
25963;DHT22;13760;52.588;13.406;2023-07-20T00:28:17;16.50;99.90
25963;DHT22;13760;52.588;13.406;2023-07-20T00:30:43;16.50;99.90
25963;DHT22;13760;52.588;13.406;2023-07-20T00:33:10;16.50;99.90
25963;DHT22;13760;52.588;13.406;2023-07-20T00:35:39;16.40;99.90
25963;DHT22;13760;52.588;13.406;2023-07-20T00:38:05;16.40;99.90
25963;DHT22;13760;52.588;13.406;2023-07-20T00:40:40;16.40;99.90
25963;DHT22;13760;52.588;13.406;2023-07-20T00:43:08;16.40;99.90
25963;DHT22;13760;52.588;13.406;2023-07-20T00:45:37;16.30;99.90
25963;DHT22;13760;52.588;13.406;2023-07-20T00:48:08;16.30;99.90
25963;DHT22;13760;52.588;13.406;2023-07-20T00:50:37;16.30;99.90
25963;DHT22;13760;52.588;13.406;2023-07-20T00:53:04;16.20;99.90
25963;DHT22;13760;52.588;13.406;2023-07-20T00:55:31;16.30;99.90
25963;DHT22;13760;52.588;13.406;2023-07-20T00:58:00;16.20;99.90
25963;DHT22;13760;52.588;13.406;2023-07-20T01:00:31;16.20;99.90
25963;DHT22;13760;52.588;13.406;2023-07-20T01:02:57;16.10;99.90
25963;DHT22;13760;52.588;13.406;2023-07-20T01:05:33;16.20;99.90
25963;DHT22;13760;52.588;13.406;2023-07-20T01:08:12;16.20;99.90
25963;DHT22;13760;52.588;13.406;2023-07-20T01:10:46;16.20;99.90
25963;DHT22;13760;52.588;13.406;2023-07-20T01:13:16;16.20;99.90
25963;DHT22;13760;52.588;13.406;2023-07-20T01:15:52;16.20;99.90
25963;DHT22;13760;52.588;13.406;2023-07-20T01:18:19;16.20;99.90
25963;DHT22;13760;52.588;13.406;2023-07-20T01:20:45;16.20;99.90
25963;DHT22;13760;52.588;13.406;2023-07-20T01:32:15;16.30;99.90
25963;DHT22;13760;52.588;13.406;2023-07-20T01:34:44;16.30;99.90
25963;DHT22;13760;52.588;13.406;2023-07-20T01:37:11;16.30;99.90
25963;DHT22;13760;52.588;13.406;2023-07-20T01:39:41;16.40;99.90
25963;DHT22;13760;52.588;13.406;2023-07-20T01:42:08;16.40;99.90
25963;DHT22;13760;52.588;13.406;2023-07-20T01:44:37;16.40;99.90
25963;DHT22;13760;52.588;13.406;2023-07-20T01:47:03;16.30;99.90
25963;DHT22;13760;52.588;13.406;2023-07-20T01:49:29;16.40;99.90
25963;DHT22;13760;52.588;13.406;2023-07-20T01:51:55;16.40;99.90
25963;DHT22;13760;52.588;13.406;2023-07-20T01:54:20;16.40;99.90
25963;DHT22;13760;52.588;13.406;2023-07-20T01:56:46;16.40;99.90
25963;DHT22;13760;52.588;13.406;2023-07-20T01:59:12;16.40;99.90
25963;DHT22;13760;52.588;13.406;2023-07-20T02:01:38;16.40;99.90
25963;DHT22;13760;52.588;13.406;2023-07-20T02:11:02;16.40;99.90
25963;DHT22;13760;52.588;13.406;2023-07-20T02:13:32;16.30;99.90
25963;DHT22;13760;52.588;13.406;2023-07-20T02:16:10;16.30;99.90
25963;DHT22;13760;52.588;13.406;2023-07-20T02:18:38;16.30;99.90
25963;DHT22;13760;52.588;13.406;2023-07-20T02:21:04;16.30;99.90
25963;DHT22;13760;52.588;13.406;2023-07-20T02:26:51;16.30;99.90
25963;DHT22;13760;52.588;13.406;2023-07-20T02:29:42;16.20;99.90
25963;DHT22;13760;52.588;13.406;2023-07-20T02:32:19;16.20;99.90
25963;DHT22;13760;52.588;13.406;2023-07-20T02:34:44;16.20;99.90
25963;DHT22;13760;52.588;13.406;2023-07-20T02:37:10;16.10;99.90
25963;DHT22;13760;52.588;13.406;2023-07-20T02:39:35;16.10;99.90
25963;DHT22;13760;52.588;13.406;2023-07-20T02:42:10;16.10;99.90
25963;DHT22;13760;52.588;13.406;2023-07-20T02:44:41;16.10;99.90
25963;DHT22;13760;52.588;13.406;2023-07-20T02:47:07;16.10;99.90
25963;DHT22;13760;52.588;13.406;2023-07-20T02:49:35;16.10;99.90
25963;DHT22;13760;52.588;13.406;2023-07-20T02:52:05;16.10;99.90
25963;DHT22;13760;52.588;13.406;2023-07-20T02:54:33;16.00;99.90
25963;DHT22;13760;52.588;13.406;2023-07-20T02:56:59;16.00;99.90
25963;DHT22;13760;52.588;13.406;2023-07-20T02:59:25;16.00;99.90
25963;DHT22;13760;52.588;13.406;2023-07-20T03:01:50;16.00;99.90
25963;DHT22;13760;52.588;13.406;2023-07-20T03:04:16;16.00;99.90
25963;DHT22;13760;52.588;13.406;2023-07-20T03:06:43;16.00;99.90
25963;DHT22;13760;52.588;13.406;2023-07-20T03:09:09;16.00;99.90
25963;DHT22;13760;52.588;13.406;2023-07-20T03:11:35;16.00;99.90
25963;DHT22;13760;52.588;13.406;2023-07-20T03:14:04;15.90;99.90
25963;DHT22;13760;52.588;13.406;2023-07-20T03:16:33;16.00;99.90
25963;DHT22;13760;52.588;13.406;2023-07-20T03:19:02;15.90;99.90
25963;DHT22;13760;52.588;13.406;2023-07-20T03:21:31;16.00;99.90
25963;DHT22;13760;52.588;13.406;2023-07-20T03:23:59;16.00;99.90
25963;DHT22;13760;52.588;13.406;2023-07-20T03:26:24;15.90;99.90
25963;DHT22;13760;52.588;13.406;2023-07-20T03:28:50;15.90;99.90
25963;DHT22;13760;52.588;13.406;2023-07-20T03:31:32;16.00;99.90
25963;DHT22;13760;52.588;13.406;2023-07-20T03:33:58;16.00;99.90
25963;DHT22;13760;52.588;13.406;2023-07-20T03:36:23;16.00;99.90
25963;DHT22;13760;52.588;13.406;2023-07-20T03:38:55;16.00;99.90
25963;DHT22;13760;52.588;13.406;2023-07-20T03:44:47;16.00;99.90
25963;DHT22;13760;52.588;13.406;2023-07-20T03:47:19;16.00;99.90
25963;DHT22;13760;52.588;13.406;2023-07-20T03:49:45;16.00;99.90
25963;DHT22;13760;52.588;13.406;2023-07-20T03:52:11;16.00;99.90
25963;DHT22;13760;52.588;13.406;2023-07-20T03:54:36;16.00;99.90
25963;DHT22;13760;52.588;13.406;2023-07-20T03:57:02;16.10;99.90
25963;DHT22;13760;52.588;13.406;2023-07-20T03:59:28;16.00;99.90
25963;DHT22;13760;52.588;13.406;2023-07-20T04:01:53;16.00;99.90
25963;DHT22;13760;52.588;13.406;2023-07-20T04:04:37;16.10;99.90
25963;DHT22;13760;52.588;13.406;2023-07-20T04:07:14;16.10;99.90
25963;DHT22;13760;52.588;13.406;2023-07-20T04:09:43;16.10;99.90
25963;DHT22;13760;52.588;13.406;2023-07-20T04:12:09;16.20;99.90
25963;DHT22;13760;52.588;13.406;2023-07-20T04:14:38;16.20;99.90
25963;DHT22;13760;52.588;13.406;2023-07-20T04:17:15;16.20;99.90
25963;DHT22;13760;52.588;13.406;2023-07-20T04:19:41;16.20;99.90
25963;DHT22;13760;52.588;13.406;2023-07-20T04:22:09;16.10;99.90
25963;DHT22;13760;52.588;13.406;2023-07-20T04:24:35;16.10;99.90
25963;DHT22;13760;52.588;13.406;2023-07-20T04:27:38;16.20;99.90
25963;DHT22;13760;52.588;13.406;2023-07-20T04:30:04;16.20;99.90
25963;DHT22;13760;52.588;13.406;2023-07-20T04:33:03;16.20;99.90
25963;DHT22;13760;52.588;13.406;2023-07-20T04:35:53;16.20;99.90
25963;DHT22;13760;52.588;13.406;2023-07-20T04:38:20;16.20;99.90
25963;DHT22;13760;52.588;13.406;2023-07-20T04:40:48;16.20;99.90
25963;DHT22;13760;52.588;13.406;2023-07-20T04:43:14;16.30;99.90
25963;DHT22;13760;52.588;13.406;2023-07-20T04:45:40;16.30;99.90
25963;DHT22;13760;52.588;13.406;2023-07-20T04:48:17;16.30;99.90
25963;DHT22;13760;52.588;13.406;2023-07-20T04:50:44;16.30;99.90
25963;DHT22;13760;52.588;13.406;2023-07-20T04:53:11;16.30;99.90
25963;DHT22;13760;52.588;13.406;2023-07-20T04:55:40;16.40;99.90
25963;DHT22;13760;52.588;13.406;2023-07-20T04:58:06;16.50;99.90
25963;DHT22;13760;52.588;13.406;2023-07-20T05:00:33;16.50;99.90
25963;DHT22;13760;52.588;13.406;2023-07-20T05:02:59;16.50;99.90
25963;DHT22;13760;52.588;13.406;2023-07-20T05:05:25;16.50;99.90
25963;DHT22;13760;52.588;13.406;2023-07-20T05:07:50;16.50;99.90
25963;DHT22;13760;52.588;13.406;2023-07-20T05:10:16;16.60;99.90
25963;DHT22;13760;52.588;13.406;2023-07-20T05:12:42;16.60;99.90
25963;DHT22;13760;52.588;13.406;2023-07-20T05:15:08;16.60;99.90
25963;DHT22;13760;52.588;13.406;2023-07-20T05:17:33;16.60;99.90
25963;DHT22;13760;52.588;13.406;2023-07-20T05:20:02;16.60;99.90
25963;DHT22;13760;52.588;13.406;2023-07-20T05:22:36;16.60;99.90
25963;DHT22;13760;52.588;13.406;2023-07-20T05:25:06;16.60;99.90
25963;DHT22;13760;52.588;13.406;2023-07-20T05:27:32;16.70;99.90
25963;DHT22;13760;52.588;13.406;2023-07-20T05:29:57;16.70;99.90
25963;DHT22;13760;52.588;13.406;2023-07-20T05:32:24;16.70;99.90
25963;DHT22;13760;52.588;13.406;2023-07-20T05:34:52;16.70;99.90
25963;DHT22;13760;52.588;13.406;2023-07-20T05:37:20;16.70;99.90
25963;DHT22;13760;52.588;13.406;2023-07-20T05:39:46;16.80;99.90
25963;DHT22;13760;52.588;13.406;2023-07-20T05:42:12;16.80;99.90
25963;DHT22;13760;52.588;13.406;2023-07-20T05:44:37;16.80;99.90
25963;DHT22;13760;52.588;13.406;2023-07-20T05:47:06;16.80;99.90
25963;DHT22;13760;52.588;13.406;2023-07-20T05:49:32;16.90;99.90
25963;DHT22;13760;52.588;13.406;2023-07-20T05:51:58;16.80;99.90
25963;DHT22;13760;52.588;13.406;2023-07-20T05:54:24;16.90;99.90
25963;DHT22;13760;52.588;13.406;2023-07-20T05:56:51;16.80;99.90
25963;DHT22;13760;52.588;13.406;2023-07-20T05:59:16;16.90;99.90
25963;DHT22;13760;52.588;13.406;2023-07-20T06:01:43;17.00;99.90
25963;DHT22;13760;52.588;13.406;2023-07-20T06:04:13;17.10;99.90
25963;DHT22;13760;52.588;13.406;2023-07-20T06:07:46;17.20;99.90
25963;DHT22;13760;52.588;13.406;2023-07-20T06:10:23;17.30;99.90
25963;DHT22;13760;52.588;13.406;2023-07-20T06:12:51;17.40;99.90
25963;DHT22;13760;52.588;13.406;2023-07-20T06:15:43;17.40;99.90
25963;DHT22;13760;52.588;13.406;2023-07-20T06:18:09;17.40;99.90
25963;DHT22;13760;52.588;13.406;2023-07-20T06:20:37;17.50;99.90
25963;DHT22;13760;52.588;13.406;2023-07-20T06:23:03;17.50;99.90
25963;DHT22;13760;52.588;13.406;2023-07-20T06:25:29;17.50;99.90
25963;DHT22;13760;52.588;13.406;2023-07-20T06:27:56;17.60;99.90
25963;DHT22;13760;52.588;13.406;2023-07-20T06:30:27;17.60;99.90
25963;DHT22;13760;52.588;13.406;2023-07-20T06:32:53;17.60;99.90
25963;DHT22;13760;52.588;13.406;2023-07-20T06:35:19;17.60;99.90
25963;DHT22;13760;52.588;13.406;2023-07-20T06:38:00;17.60;99.90
25963;DHT22;13760;52.588;13.406;2023-07-20T06:40:28;17.70;99.90
25963;DHT22;13760;52.588;13.406;2023-07-20T06:43:20;17.90;99.90
25963;DHT22;13760;52.588;13.406;2023-07-20T06:45:58;17.90;99.90
25963;DHT22;13760;52.588;13.406;2023-07-20T06:48:29;17.90;99.90
25963;DHT22;13760;52.588;13.406;2023-07-20T06:50:55;18.00;99.90
25963;DHT22;13760;52.588;13.406;2023-07-20T06:53:21;18.00;99.90
25963;DHT22;13760;52.588;13.406;2023-07-20T06:55:47;18.20;99.90
25963;DHT22;13760;52.588;13.406;2023-07-20T06:58:16;18.30;99.90
25963;DHT22;13760;52.588;13.406;2023-07-20T07:01:20;18.30;99.90
25963;DHT22;13760;52.588;13.406;2023-07-20T07:04:12;18.30;99.90
25963;DHT22;13760;52.588;13.406;2023-07-20T07:06:44;18.20;99.90
25963;DHT22;13760;52.588;13.406;2023-07-20T07:09:10;18.10;99.90
25963;DHT22;13760;52.588;13.406;2023-07-20T07:11:45;18.10;99.90
25963;DHT22;13760;52.588;13.406;2023-07-20T07:14:23;18.20;99.90
25963;DHT22;13760;52.588;13.406;2023-07-20T07:20:36;18.30;99.90
25963;DHT22;13760;52.588;13.406;2023-07-20T07:23:10;18.30;99.90
25963;DHT22;13760;52.588;13.406;2023-07-20T07:25:42;18.60;99.90
25963;DHT22;13760;52.588;13.406;2023-07-20T07:28:28;18.70;99.90
25963;DHT22;13760;52.588;13.406;2023-07-20T07:30:55;18.90;99.90
25963;DHT22;13760;52.588;13.406;2023-07-20T07:33:35;19.00;99.90
25963;DHT22;13760;52.588;13.406;2023-07-20T07:36:30;19.20;99.90
25963;DHT22;13760;52.588;13.406;2023-07-20T07:38:56;19.20;99.90
25963;DHT22;13760;52.588;13.406;2023-07-20T07:41:58;19.40;99.90
25963;DHT22;13760;52.588;13.406;2023-07-20T07:44:44;19.50;99.90
25963;DHT22;13760;52.588;13.406;2023-07-20T07:47:10;19.50;99.90
25963;DHT22;13760;52.588;13.406;2023-07-20T07:49:35;19.50;99.90
25963;DHT22;13760;52.588;13.406;2023-07-20T07:52:01;19.50;99.90
25963;DHT22;13760;52.588;13.406;2023-07-20T07:54:30;19.70;99.90
25963;DHT22;13760;52.588;13.406;2023-07-20T07:56:59;19.70;99.90
25963;DHT22;13760;52.588;13.406;2023-07-20T07:59:30;19.70;99.90
25963;DHT22;13760;52.588;13.406;2023-07-20T08:02:04;19.80;99.90
25963;DHT22;13760;52.588;13.406;2023-07-20T08:04:31;19.80;99.90
25963;DHT22;13760;52.588;13.406;2023-07-20T08:07:02;19.70;99.90
25963;DHT22;13760;52.588;13.406;2023-07-20T08:09:28;19.70;99.90
25963;DHT22;13760;52.588;13.406;2023-07-20T08:11:54;19.70;99.90
25963;DHT22;13760;52.588;13.406;2023-07-20T08:14:19;19.60;99.90
25963;DHT22;13760;52.588;13.406;2023-07-20T08:16:45;19.60;99.90
25963;DHT22;13760;52.588;13.406;2023-07-20T08:19:13;19.60;99.90
25963;DHT22;13760;52.588;13.406;2023-07-20T08:21:43;19.70;99.90
25963;DHT22;13760;52.588;13.406;2023-07-20T08:24:09;19.70;99.90
25963;DHT22;13760;52.588;13.406;2023-07-20T08:26:34;19.90;99.90
25963;DHT22;13760;52.588;13.406;2023-07-20T08:29:00;20.20;99.90
25963;DHT22;13760;52.588;13.406;2023-07-20T08:34:04;20.40;99.90
25963;DHT22;13760;52.588;13.406;2023-07-20T08:36:48;20.40;99.90
25963;DHT22;13760;52.588;13.406;2023-07-20T08:39:23;20.50;99.90
25963;DHT22;13760;52.588;13.406;2023-07-20T08:41:59;20.50;99.90
25963;DHT22;13760;52.588;13.406;2023-07-20T08:44:29;20.60;99.90
25963;DHT22;13760;52.588;13.406;2023-07-20T08:47:09;20.70;99.90
25963;DHT22;13760;52.588;13.406;2023-07-20T08:49:53;20.80;99.90
25963;DHT22;13760;52.588;13.406;2023-07-20T08:52:20;21.00;99.90
25963;DHT22;13760;52.588;13.406;2023-07-20T08:54:45;21.30;99.90
25963;DHT22;13760;52.588;13.406;2023-07-20T08:57:52;21.50;99.90
25963;DHT22;13760;52.588;13.406;2023-07-20T09:00:19;21.80;99.90
25963;DHT22;13760;52.588;13.406;2023-07-20T09:02:56;21.90;99.90
25963;DHT22;13760;52.588;13.406;2023-07-20T09:05:34;22.10;99.90
25963;DHT22;13760;52.588;13.406;2023-07-20T09:11:01;22.30;99.90
25963;DHT22;13760;52.588;13.406;2023-07-20T09:21:17;22.20;99.90
25963;DHT22;13760;52.588;13.406;2023-07-20T09:23:43;22.20;99.90
25963;DHT22;13760;52.588;13.406;2023-07-20T09:26:13;22.30;99.90
25963;DHT22;13760;52.588;13.406;2023-07-20T09:28:51;22.40;99.90
25963;DHT22;13760;52.588;13.406;2023-07-20T09:31:18;22.50;99.90
25963;DHT22;13760;52.588;13.406;2023-07-20T09:33:45;22.50;99.90
25963;DHT22;13760;52.588;13.406;2023-07-20T09:36:11;22.40;99.90
25963;DHT22;13760;52.588;13.406;2023-07-20T09:38:38;22.20;99.90
25963;DHT22;13760;52.588;13.406;2023-07-20T09:41:07;21.90;99.90
25963;DHT22;13760;52.588;13.406;2023-07-20T09:43:36;21.60;99.90
25963;DHT22;13760;52.588;13.406;2023-07-20T09:46:02;21.30;99.90
25963;DHT22;13760;52.588;13.406;2023-07-20T09:48:29;21.10;99.90
25963;DHT22;13760;52.588;13.406;2023-07-20T09:50:56;20.90;99.90
25963;DHT22;13760;52.588;13.406;2023-07-20T09:53:25;20.70;99.90
25963;DHT22;13760;52.588;13.406;2023-07-20T09:55:57;20.60;99.90
25963;DHT22;13760;52.588;13.406;2023-07-20T09:58:37;20.60;99.90
25963;DHT22;13760;52.588;13.406;2023-07-20T10:01:07;20.50;99.90
25963;DHT22;13760;52.588;13.406;2023-07-20T10:03:37;20.50;99.90
25963;DHT22;13760;52.588;13.406;2023-07-20T10:06:06;20.40;99.90
25963;DHT22;13760;52.588;13.406;2023-07-20T10:08:39;20.40;99.90
25963;DHT22;13760;52.588;13.406;2023-07-20T10:11:08;20.30;99.90
25963;DHT22;13760;52.588;13.406;2023-07-20T10:13:38;20.30;99.90
25963;DHT22;13760;52.588;13.406;2023-07-20T10:16:20;20.40;99.90
25963;DHT22;13760;52.588;13.406;2023-07-20T10:18:55;20.30;99.90
25963;DHT22;13760;52.588;13.406;2023-07-20T10:21:24;20.20;99.90
25963;DHT22;13760;52.588;13.406;2023-07-20T10:23:51;20.20;99.90
25963;DHT22;13760;52.588;13.406;2023-07-20T10:26:16;20.10;99.90
25963;DHT22;13760;52.588;13.406;2023-07-20T10:28:42;20.10;99.90
25963;DHT22;13760;52.588;13.406;2023-07-20T10:31:09;20.10;99.90
25963;DHT22;13760;52.588;13.406;2023-07-20T10:33:37;20.20;99.90
25963;DHT22;13760;52.588;13.406;2023-07-20T10:36:04;20.20;99.90
25963;DHT22;13760;52.588;13.406;2023-07-20T10:38:45;20.40;99.90
25963;DHT22;13760;52.588;13.406;2023-07-20T10:41:21;20.50;99.90
25963;DHT22;13760;52.588;13.406;2023-07-20T10:43:48;20.50;99.90
25963;DHT22;13760;52.588;13.406;2023-07-20T10:46:14;20.50;99.90
25963;DHT22;13760;52.588;13.406;2023-07-20T10:49:02;20.40;99.90
25963;DHT22;13760;52.588;13.406;2023-07-20T10:51:30;20.50;99.90
25963;DHT22;13760;52.588;13.406;2023-07-20T10:54:02;20.70;99.90
25963;DHT22;13760;52.588;13.406;2023-07-20T10:56:28;20.70;99.90
25963;DHT22;13760;52.588;13.406;2023-07-20T10:59:00;20.90;99.90
25963;DHT22;13760;52.588;13.406;2023-07-20T11:01:36;20.90;99.90
25963;DHT22;13760;52.588;13.406;2023-07-20T11:04:08;20.90;99.90
25963;DHT22;13760;52.588;13.406;2023-07-20T11:06:33;21.00;99.90
25963;DHT22;13760;52.588;13.406;2023-07-20T11:09:09;21.00;99.90
25963;DHT22;13760;52.588;13.406;2023-07-20T11:11:43;21.00;99.90
25963;DHT22;13760;52.588;13.406;2023-07-20T11:14:11;21.20;99.90
25963;DHT22;13760;52.588;13.406;2023-07-20T11:16:46;21.40;99.90
25963;DHT22;13760;52.588;13.406;2023-07-20T11:19:20;21.70;99.90
25963;DHT22;13760;52.588;13.406;2023-07-20T11:21:58;21.90;99.90
25963;DHT22;13760;52.588;13.406;2023-07-20T11:24:24;22.00;99.90
25963;DHT22;13760;52.588;13.406;2023-07-20T11:26:52;21.90;99.90
25963;DHT22;13760;52.588;13.406;2023-07-20T11:29:20;21.90;99.90
25963;DHT22;13760;52.588;13.406;2023-07-20T11:31:46;22.10;99.90
25963;DHT22;13760;52.588;13.406;2023-07-20T11:34:16;22.40;99.90
25963;DHT22;13760;52.588;13.406;2023-07-20T11:36:43;22.60;99.90
25963;DHT22;13760;52.588;13.406;2023-07-20T11:39:15;22.70;99.90
25963;DHT22;13760;52.588;13.406;2023-07-20T11:41:46;22.60;99.90
25963;DHT22;13760;52.588;13.406;2023-07-20T11:44:12;22.30;99.90
25963;DHT22;13760;52.588;13.406;2023-07-20T11:46:44;22.20;99.90
25963;DHT22;13760;52.588;13.406;2023-07-20T11:49:11;22.10;99.90
25963;DHT22;13760;52.588;13.406;2023-07-20T11:51:39;21.90;99.90
25963;DHT22;13760;52.588;13.406;2023-07-20T11:54:06;21.60;99.90
25963;DHT22;13760;52.588;13.406;2023-07-20T11:56:32;21.40;99.90
25963;DHT22;13760;52.588;13.406;2023-07-20T11:58:58;21.10;99.90
25963;DHT22;13760;52.588;13.406;2023-07-20T12:01:27;20.90;99.90
25963;DHT22;13760;52.588;13.406;2023-07-20T12:04:01;20.80;99.90
25963;DHT22;13760;52.588;13.406;2023-07-20T12:06:30;20.80;99.90
25963;DHT22;13760;52.588;13.406;2023-07-20T12:08:57;20.70;99.90
25963;DHT22;13760;52.588;13.406;2023-07-20T12:11:38;20.60;99.90
25963;DHT22;13760;52.588;13.406;2023-07-20T12:14:07;20.60;99.90
25963;DHT22;13760;52.588;13.406;2023-07-20T12:16:33;20.50;99.90
25963;DHT22;13760;52.588;13.406;2023-07-20T12:19:12;20.50;99.90
25963;DHT22;13760;52.588;13.406;2023-07-20T12:21:40;20.50;99.90
25963;DHT22;13760;52.588;13.406;2023-07-20T12:24:07;20.40;99.90
25963;DHT22;13760;52.588;13.406;2023-07-20T12:26:34;20.40;99.90
25963;DHT22;13760;52.588;13.406;2023-07-20T12:29:00;20.50;99.90
25963;DHT22;13760;52.588;13.406;2023-07-20T12:31:27;20.70;99.90
25963;DHT22;13760;52.588;13.406;2023-07-20T12:33:53;20.90;99.90
25963;DHT22;13760;52.588;13.406;2023-07-20T12:36:22;21.00;99.90
25963;DHT22;13760;52.588;13.406;2023-07-20T12:38:48;21.20;99.90
25963;DHT22;13760;52.588;13.406;2023-07-20T12:41:14;21.30;99.90
25963;DHT22;13760;52.588;13.406;2023-07-20T12:43:43;21.30;99.90
25963;DHT22;13760;52.588;13.406;2023-07-20T12:46:10;21.50;99.90
25963;DHT22;13760;52.588;13.406;2023-07-20T12:48:37;21.70;99.90
25963;DHT22;13760;52.588;13.406;2023-07-20T12:51:03;21.90;99.90
25963;DHT22;13760;52.588;13.406;2023-07-20T12:53:30;22.10;99.90
25963;DHT22;13760;52.588;13.406;2023-07-20T12:55:56;22.30;99.90
25963;DHT22;13760;52.588;13.406;2023-07-20T12:58:21;22.20;99.90
25963;DHT22;13760;52.588;13.406;2023-07-20T13:00:47;22.30;99.90
25963;DHT22;13760;52.588;13.406;2023-07-20T13:03:12;22.50;98.40
25963;DHT22;13760;52.588;13.406;2023-07-20T13:05:38;22.60;97.50
25963;DHT22;13760;52.588;13.406;2023-07-20T13:08:04;22.70;97.10
25963;DHT22;13760;52.588;13.406;2023-07-20T13:10:31;22.80;97.00
25963;DHT22;13760;52.588;13.406;2023-07-20T13:12:56;22.80;96.10
25963;DHT22;13760;52.588;13.406;2023-07-20T13:15:24;22.90;96.40
25963;DHT22;13760;52.588;13.406;2023-07-20T13:17:54;22.90;94.80
25963;DHT22;13760;52.588;13.406;2023-07-20T13:20:19;22.90;95.30
25963;DHT22;13760;52.588;13.406;2023-07-20T13:22:45;22.90;94.00
25963;DHT22;13760;52.588;13.406;2023-07-20T13:25:10;23.10;94.80
25963;DHT22;13760;52.588;13.406;2023-07-20T13:27:36;23.20;94.00
25963;DHT22;13760;52.588;13.406;2023-07-20T13:30:02;23.40;92.60
25963;DHT22;13760;52.588;13.406;2023-07-20T13:32:32;23.60;92.80
25963;DHT22;13760;52.588;13.406;2023-07-20T13:35:01;23.70;92.20
25963;DHT22;13760;52.588;13.406;2023-07-20T13:37:26;23.70;90.00
25963;DHT22;13760;52.588;13.406;2023-07-20T13:39:52;23.80;89.80
25963;DHT22;13760;52.588;13.406;2023-07-20T13:42:18;23.80;87.20
25963;DHT22;13760;52.588;13.406;2023-07-20T13:44:43;23.80;85.20
25963;DHT22;13760;52.588;13.406;2023-07-20T13:47:09;23.90;86.90
25963;DHT22;13760;52.588;13.406;2023-07-20T13:49:34;24.10;84.90
25963;DHT22;13760;52.588;13.406;2023-07-20T13:52:00;24.20;83.60
25963;DHT22;13760;52.588;13.406;2023-07-20T13:54:26;24.30;82.10
25963;DHT22;13760;52.588;13.406;2023-07-20T13:56:51;24.40;79.10
25963;DHT22;13760;52.588;13.406;2023-07-20T13:59:17;24.20;78.60
25963;DHT22;13760;52.588;13.406;2023-07-20T14:01:43;24.30;78.60
25963;DHT22;13760;52.588;13.406;2023-07-20T14:04:08;24.60;76.80
25963;DHT22;13760;52.588;13.406;2023-07-20T14:06:34;24.80;76.20
25963;DHT22;13760;52.588;13.406;2023-07-20T14:09:01;25.00;73.00
25963;DHT22;13760;52.588;13.406;2023-07-20T14:11:27;24.90;71.00
25963;DHT22;13760;52.588;13.406;2023-07-20T14:13:53;25.10;70.70
25963;DHT22;13760;52.588;13.406;2023-07-20T14:16:20;25.00;69.20
25963;DHT22;13760;52.588;13.406;2023-07-20T14:18:45;25.20;71.10
25963;DHT22;13760;52.588;13.406;2023-07-20T14:21:14;25.40;69.50
25963;DHT22;13760;52.588;13.406;2023-07-20T14:23:45;25.30;66.40
25963;DHT22;13760;52.588;13.406;2023-07-20T14:26:12;25.10;66.60
25963;DHT22;13760;52.588;13.406;2023-07-20T14:28:37;24.50;68.80
25963;DHT22;13760;52.588;13.406;2023-07-20T14:31:03;24.10;70.10
25963;DHT22;13760;52.588;13.406;2023-07-20T14:33:28;23.90;71.80
25963;DHT22;13760;52.588;13.406;2023-07-20T14:35:54;23.80;71.80
25963;DHT22;13760;52.588;13.406;2023-07-20T14:38:19;23.80;73.00
25963;DHT22;13760;52.588;13.406;2023-07-20T14:40:45;23.80;72.60
25963;DHT22;13760;52.588;13.406;2023-07-20T14:43:11;23.90;72.70
25963;DHT22;13760;52.588;13.406;2023-07-20T14:45:36;23.80;71.50
25963;DHT22;13760;52.588;13.406;2023-07-20T14:48:05;23.60;72.90
25963;DHT22;13760;52.588;13.406;2023-07-20T14:50:31;23.40;71.70
25963;DHT22;13760;52.588;13.406;2023-07-20T14:52:56;23.30;72.00
25963;DHT22;13760;52.588;13.406;2023-07-20T14:55:22;23.30;73.10
25963;DHT22;13760;52.588;13.406;2023-07-20T14:57:48;23.30;71.90
25963;DHT22;13760;52.588;13.406;2023-07-20T15:00:14;23.30;72.90
25963;DHT22;13760;52.588;13.406;2023-07-20T15:02:40;23.30;71.70
25963;DHT22;13760;52.588;13.406;2023-07-20T15:05:10;23.40;71.90
25963;DHT22;13760;52.588;13.406;2023-07-20T15:07:36;23.40;73.30
25963;DHT22;13760;52.588;13.406;2023-07-20T15:10:03;23.50;70.40
25963;DHT22;13760;52.588;13.406;2023-07-20T15:12:30;23.50;72.70
25963;DHT22;13760;52.588;13.406;2023-07-20T15:15:14;23.50;71.10
25963;DHT22;13760;52.588;13.406;2023-07-20T15:17:41;23.30;68.90
25963;DHT22;13760;52.588;13.406;2023-07-20T15:20:09;23.20;68.60
25963;DHT22;13760;52.588;13.406;2023-07-20T15:22:35;23.20;69.20
25963;DHT22;13760;52.588;13.406;2023-07-20T15:25:05;23.20;71.40
25963;DHT22;13760;52.588;13.406;2023-07-20T15:27:32;23.20;70.90
25963;DHT22;13760;52.588;13.406;2023-07-20T15:29:58;23.30;70.20
25963;DHT22;13760;52.588;13.406;2023-07-20T15:32:23;23.20;70.00
25963;DHT22;13760;52.588;13.406;2023-07-20T15:34:49;23.10;70.30
25963;DHT22;13760;52.588;13.406;2023-07-20T15:37:14;23.00;70.40
25963;DHT22;13760;52.588;13.406;2023-07-20T15:39:40;23.00;71.50
25963;DHT22;13760;52.588;13.406;2023-07-20T15:42:07;22.80;70.30
25963;DHT22;13760;52.588;13.406;2023-07-20T15:44:33;22.80;71.30
25963;DHT22;13760;52.588;13.406;2023-07-20T15:46:59;22.70;69.50
25963;DHT22;13760;52.588;13.406;2023-07-20T15:49:24;22.70;71.70
25963;DHT22;13760;52.588;13.406;2023-07-20T15:51:58;22.70;71.30
25963;DHT22;13760;52.588;13.406;2023-07-20T15:54:24;22.50;74.10
25963;DHT22;13760;52.588;13.406;2023-07-20T15:56:50;22.50;74.60
25963;DHT22;13760;52.588;13.406;2023-07-20T15:59:16;22.40;75.20
25963;DHT22;13760;52.588;13.406;2023-07-20T16:01:43;22.40;76.10
25963;DHT22;13760;52.588;13.406;2023-07-20T16:04:13;22.30;76.20
25963;DHT22;13760;52.588;13.406;2023-07-20T16:06:39;22.20;77.00
25963;DHT22;13760;52.588;13.406;2023-07-20T16:09:05;22.20;76.60